Time;durP1;ratioP1;P1;durP2;ratioP2;P2;SDS_P1;SDS_P2;PMS_P1;PMS_P2;Temp;Humidity;BMP_temperature;BMP_pressure;BME280_temperature;BME280_humidity;BME280_pressure;Samples;Min_cycle;Max_cycle;Signal;HPM_P1;HPM_P2
2021/12/06 00:00:52;;;;;;;5.88;3.83;;;;;;;;;;5133249;27;20016;-74
2021/12/06 00:03:19;;;;;;;8.20;4.50;;;;;;;;;;5135078;27;20022;-75
2021/12/06 00:05:45;;;;;;;7.07;4.90;;;;;;;;;;5116415;27;20026;-75
2021/12/06 00:08:10;;;;;;;8.50;4.10;;;;;;;;;;5126530;27;20011;-75
2021/12/06 00:10:37;;;;;;;4.68;3.80;;;;;;;;;;5116016;27;20027;-75
2021/12/06 00:13:02;;;;;;;5.93;4.05;;;;;;;;;;5116159;27;20091;-74
2021/12/06 00:15:31;;;;;;;8.68;4.80;;;;;;;;;;5116118;27;20410;-74
2021/12/06 00:17:56;;;;;;;10.32;4.47;;;;;;;;;;5134069;27;20018;-74
2021/12/06 00:20:22;;;;;;;7.47;5.15;;;;;;;;;;5116861;27;20402;-74
2021/12/06 00:22:47;;;;;;;7.50;4.40;;;;;;;;;;5134492;27;20475;-74
2021/12/06 00:25:14;;;;;;;7.67;5.13;;;;;;;;;;5116110;27;20030;-74
2021/12/06 00:27:39;;;;;;;10.18;5.60;;;;;;;;;;5133709;27;20034;-75
2021/12/06 00:30:06;;;;;;;9.20;4.95;;;;;;;;;;5130796;27;20031;-73
2021/12/06 00:32:32;;;;;;;8.35;5.55;;;;;;;;;;5118417;27;20030;-74
2021/12/06 00:34:57;;;;;;;10.35;5.35;;;;;;;;;;5135022;27;20442;-74
2021/12/06 00:37:30;;;;;;;9.25;5.57;;;;;;;;;;5132986;27;20049;-74
2021/12/06 00:39:57;;;;;;;8.18;5.80;;;;;;;;;;5116156;27;20019;-74
2021/12/06 00:42:23;;;;;;;9.85;5.13;;;;;;;;;;5133530;27;20038;-74
2021/12/06 00:44:49;;;;;;;9.10;5.22;;;;;;;;;;5102979;27;20157;-75
2021/12/06 00:47:15;;;;;;;11.60;5.70;;;;;;;;;;5098988;27;20054;-74
2021/12/06 00:49:40;;;;;;;8.77;4.93;;;;;;;;;;5134375;27;20383;-75
2021/12/06 00:52:06;;;;;;;8.85;4.88;;;;;;;;;;5134140;27;20019;-74
2021/12/06 00:54:35;;;;;;;7.63;4.90;;;;;;;;;;5115649;27;20098;-74
2021/12/06 00:57:02;;;;;;;9.32;6.05;;;;;;;;;;5115451;27;20095;-75
2021/12/06 00:59:27;;;;;;;8.05;5.43;;;;;;;;;;5111340;27;20019;-73
2021/12/06 01:01:54;;;;;;;8.02;5.10;;;;;;;;;;5115198;27;20042;-74
2021/12/06 01:04:19;;;;;;;7.97;5.30;;;;;;;;;;5132329;27;20031;-74
2021/12/06 01:06:44;;;;;;;8.45;5.20;;;;;;;;;;5115791;27;20030;-74
2021/12/06 01:09:09;;;;;;;7.03;4.88;;;;;;;;;;5113794;27;20049;-74
2021/12/06 01:11:35;;;;;;;9.57;5.40;;;;;;;;;;5098157;27;20525;-74
2021/12/06 01:14:00;;;;;;;8.43;5.05;;;;;;;;;;5127921;27;20019;-74
2021/12/06 01:16:25;;;;;;;7.40;5.38;;;;;;;;;;5088227;27;20192;-74
2021/12/06 01:18:50;;;;;;;8.90;5.97;;;;;;;;;;5115186;27;20449;-73
2021/12/06 01:21:26;;;;;;;6.00;4.88;;;;;;;;;;5133392;27;20027;-74
2021/12/06 01:29:39;;;;;;;10.63;7.38;;;;;;;;;;5086048;28;20035;-73
2021/12/06 01:32:15;;;;;;;11.27;7.47;;;;;;;;;;5084201;28;20040;-74
2021/12/06 01:40:09;;;;;;;13.55;7.93;;;;;;;;;;5074479;28;20564;-73
2021/12/06 01:42:34;;;;;;;13.07;8.50;;;;;;;;;;5068056;28;20118;-74
2021/12/06 01:44:59;;;;;;;15.68;9.40;;;;;;;;;;5073286;28;20063;-74
2021/12/06 01:47:29;;;;;;;12.40;8.48;;;;;;;;;;5058515;28;20438;-74
2021/12/06 01:49:55;;;;;;;12.68;8.75;;;;;;;;;;5089948;28;20032;-75
2021/12/06 01:52:40;;;;;;;13.98;8.85;;;;;;;;;;5090023;28;20488;-74
2021/12/06 01:55:07;;;;;;;17.83;9.48;;;;;;;;;;5072935;28;20308;-74
2021/12/06 01:57:32;;;;;;;13.95;8.88;;;;;;;;;;5067826;28;22844;-74
2021/12/06 01:59:58;;;;;;;15.32;9.55;;;;;;;;;;5095916;28;20488;-74
2021/12/06 02:02:24;;;;;;;14.60;9.73;;;;;;;;;;5108645;27;20051;-74
2021/12/06 02:04:49;;;;;;;15.55;10.27;;;;;;;;;;5132895;27;20373;-74
2021/12/06 02:07:16;;;;;;;16.17;10.63;;;;;;;;;;5133022;27;20034;-73
2021/12/06 02:09:43;;;;;;;14.38;10.27;;;;;;;;;;5131945;27;20027;-74
2021/12/06 02:12:09;;;;;;;17.25;11.55;;;;;;;;;;5132456;27;20023;-74
2021/12/06 02:17:21;;;;;;;18.88;12.43;;;;;;;;;;5114631;27;20498;-74
2021/12/06 02:19:49;;;;;;;21.47;12.80;;;;;;;;;;5106853;28;20023;-74
2021/12/06 02:22:16;;;;;;;22.33;13.27;;;;;;;;;;5132657;27;20460;-72
2021/12/06 02:24:41;;;;;;;21.90;12.60;;;;;;;;;;5114346;28;20034;-74
2021/12/06 02:27:08;;;;;;;31.27;15.27;;;;;;;;;;5132289;27;20022;-74
2021/12/06 02:29:33;;;;;;;28.95;14.05;;;;;;;;;;5131615;27;20092;-74
2021/12/06 02:32:00;;;;;;;22.38;13.98;;;;;;;;;;5120278;28;20472;-74
2021/12/06 02:34:25;;;;;;;28.40;15.25;;;;;;;;;;5110697;28;20024;-75
2021/12/06 02:36:50;;;;;;;31.42;14.75;;;;;;;;;;5114150;27;20030;-74
2021/12/06 02:39:23;;;;;;;50.72;17.08;;;;;;;;;;5131736;27;20066;-75
2021/12/06 02:41:51;;;;;;;35.70;16.33;;;;;;;;;;5097868;28;20019;-75
2021/12/06 02:44:17;;;;;;;32.42;16.15;;;;;;;;;;5114778;28;20033;-74
2021/12/06 02:46:42;;;;;;;28.70;15.25;;;;;;;;;;5132743;28;20106;-74
2021/12/06 02:49:07;;;;;;;39.25;14.82;;;;;;;;;;5131645;27;20062;-74
2021/12/06 02:51:33;;;;;;;30.88;15.60;;;;;;;;;;5132523;28;20552;-74
2021/12/06 02:53:58;;;;;;;42.17;17.13;;;;;;;;;;5132196;28;20023;-74
2021/12/06 02:56:39;;;;;;;34.88;15.52;;;;;;;;;;5113653;28;20065;-74
2021/12/06 02:59:06;;;;;;;35.55;15.02;;;;;;;;;;5094521;28;20027;-74
2021/12/06 03:01:33;;;;;;;33.15;15.80;;;;;;;;;;5112746;28;20047;-73
2021/12/06 03:03:59;;;;;;;31.45;14.77;;;;;;;;;;5113326;28;20038;-73
2021/12/06 03:06:25;;;;;;;34.33;15.52;;;;;;;;;;5114299;28;20406;-74
2021/12/06 03:08:56;;;;;;;32.13;15.40;;;;;;;;;;5093350;28;20053;-74
2021/12/06 03:11:23;;;;;;;34.63;16.13;;;;;;;;;;5112604;28;20136;-74
2021/12/06 03:13:49;;;;;;;59.30;16.80;;;;;;;;;;5132316;28;20512;-74
2021/12/06 03:16:14;;;;;;;42.90;15.80;;;;;;;;;;5113207;28;20023;-74
2021/12/06 03:18:43;;;;;;;61.93;17.97;;;;;;;;;;5113587;28;20038;-74
2021/12/06 03:21:08;;;;;;;69.33;18.07;;;;;;;;;;5131734;28;20110;-74
2021/12/06 03:23:33;;;;;;;68.53;18.80;;;;;;;;;;5113473;28;20111;-75
2021/12/06 03:25:59;;;;;;;85.70;20.10;;;;;;;;;;5131956;28;20471;-74
2021/12/06 03:28:24;;;;;;;87.57;20.25;;;;;;;;;;5129996;27;20428;-74
2021/12/06 03:30:49;;;;;;;90.78;20.55;;;;;;;;;;5113302;28;20039;-74
2021/12/06 03:33:15;;;;;;;70.00;17.65;;;;;;;;;;5127166;27;20019;-74
2021/12/06 03:35:40;;;;;;;69.53;17.10;;;;;;;;;;5132462;27;20022;-74
2021/12/06 03:38:05;;;;;;;66.43;17.25;;;;;;;;;;5134979;27;20019;-73
2021/12/06 03:40:30;;;;;;;85.20;18.50;;;;;;;;;;5099957;27;20076;-73
2021/12/06 03:42:56;;;;;;;107.55;18.90;;;;;;;;;;5123744;27;20509;-73
2021/12/06 03:45:21;;;;;;;63.38;17.77;;;;;;;;;;5114491;27;20019;-73
2021/12/06 03:47:46;;;;;;;88.50;18.60;;;;;;;;;;5134822;27;20029;-72
2021/12/06 03:50:12;;;;;;;48.70;15.75;;;;;;;;;;5116810;27;20037;-73
2021/12/06 03:52:38;;;;;;;49.13;16.42;;;;;;;;;;5130768;27;20012;-73
2021/12/06 03:55:04;;;;;;;43.92;16.80;;;;;;;;;;5134675;27;20062;-74
2021/12/06 03:57:29;;;;;;;62.20;17.37;;;;;;;;;;5114608;27;20003;-74
2021/12/06 03:59:55;;;;;;;38.28;15.02;;;;;;;;;;5111424;27;20027;-74
2021/12/06 04:02:22;;;;;;;62.85;18.45;;;;;;;;;;5116537;27;20088;-74
2021/12/06 04:04:47;;;;;;;125.47;23.33;;;;;;;;;;5116296;27;20576;-73
2021/12/06 04:07:12;;;;;;;62.78;17.88;;;;;;;;;;5116437;27;20035;-74
2021/12/06 04:09:38;;;;;;;65.93;17.83;;;;;;;;;;5116818;27;20030;-74
2021/12/06 04:12:07;;;;;;;48.07;19.27;;;;;;;;;;5134944;27;20023;-73
2021/12/06 04:14:33;;;;;;;106.03;20.70;;;;;;;;;;5114803;27;20030;-73
2021/12/06 04:16:58;;;;;;;37.70;17.27;;;;;;;;;;5129186;27;20023;-73
2021/12/06 04:19:23;;;;;;;59.10;18.77;;;;;;;;;;5135109;27;20023;-74
2021/12/06 04:21:48;;;;;;;37.83;16.73;;;;;;;;;;5134926;27;20096;-73
2021/12/06 04:24:15;;;;;;;36.37;16.90;;;;;;;;;;5116457;27;20035;-74
2021/12/06 04:26:40;;;;;;;72.23;19.00;;;;;;;;;;5097964;27;20050;-73
2021/12/06 04:29:06;;;;;;;83.23;17.93;;;;;;;;;;5111906;27;20515;-74
2021/12/06 04:31:32;;;;;;;59.47;18.73;;;;;;;;;;5134315;27;20024;-74
2021/12/06 04:33:58;;;;;;;71.93;19.43;;;;;;;;;;5108546;27;20098;-73
2021/12/06 04:36:23;;;;;;;63.53;17.77;;;;;;;;;;5115553;27;20551;-74
2021/12/06 04:38:49;;;;;;;50.20;16.30;;;;;;;;;;5098516;27;20019;-74
2021/12/06 04:41:14;;;;;;;39.33;15.30;;;;;;;;;;5134382;27;20027;-74
2021/12/06 04:43:39;;;;;;;38.43;14.90;;;;;;;;;;5116447;27;20023;-72
2021/12/06 04:46:05;;;;;;;27.43;12.63;;;;;;;;;;5094579;27;20024;-73
2021/12/06 04:48:30;;;;;;;24.20;10.13;;;;;;;;;;5115797;27;20027;-73
2021/12/06 04:50:55;;;;;;;24.20;10.53;;;;;;;;;;5134602;27;20099;-74
2021/12/06 04:53:24;;;;;;;23.03;12.07;;;;;;;;;;5134526;27;20026;-73
2021/12/06 04:55:58;;;;;;;21.80;10.40;;;;;;;;;;5131391;27;20143;-73
2021/12/06 04:58:25;;;;;;;30.23;10.70;;;;;;;;;;5129564;27;20881;-73
2021/12/06 05:00:57;;;;;;;20.97;10.20;;;;;;;;;;5110749;28;20011;-73
2021/12/06 05:03:23;;;;;;;27.80;11.70;;;;;;;;;;5102997;27;20493;-72
2021/12/06 05:05:52;;;;;;;24.57;10.83;;;;;;;;;;5133844;27;20098;-72
2021/12/06 05:08:21;;;;;;;24.67;10.53;;;;;;;;;;5133069;27;20027;-72
2021/12/06 05:10:47;;;;;;;27.50;11.37;;;;;;;;;;5133612;27;20504;-71
2021/12/06 05:13:12;;;;;;;29.27;13.20;;;;;;;;;;5098694;27;20121;-73
2021/12/06 05:15:37;;;;;;;38.37;14.90;;;;;;;;;;5132932;27;20035;-72
2021/12/06 05:18:03;;;;;;;34.23;15.63;;;;;;;;;;5114954;27;20023;-73
2021/12/06 05:20:28;;;;;;;37.23;17.90;;;;;;;;;;5115195;27;20034;-72
2021/12/06 05:22:54;;;;;;;34.87;17.23;;;;;;;;;;5115738;27;20055;-73
2021/12/06 05:25:23;;;;;;;37.63;16.77;;;;;;;;;;5114168;27;20020;-73
2021/12/06 05:27:48;;;;;;;35.80;17.67;;;;;;;;;;5113629;27;20026;-73
2021/12/06 05:30:14;;;;;;;34.10;17.57;;;;;;;;;;5128574;27;20031;-74
2021/12/06 05:32:41;;;;;;;29.30;16.73;;;;;;;;;;5132838;27;20020;-75
2021/12/06 05:35:07;;;;;;;29.53;15.97;;;;;;;;;;5098050;27;20055;-72
2021/12/06 05:37:38;;;;;;;32.50;17.17;;;;;;;;;;5114536;27;20027;-72
2021/12/06 05:40:05;;;;;;;32.77;17.73;;;;;;;;;;5114599;27;20073;-73
2021/12/06 05:42:31;;;;;;;32.13;18.00;;;;;;;;;;5120017;27;20054;-73
2021/12/06 05:44:56;;;;;;;32.20;18.47;;;;;;;;;;5098018;27;20066;-73
2021/12/06 05:47:21;;;;;;;31.13;17.47;;;;;;;;;;5096012;27;20023;-73
2021/12/06 05:49:46;;;;;;;36.87;19.23;;;;;;;;;;5094494;28;20024;-72
2021/12/06 05:52:12;;;;;;;34.83;18.87;;;;;;;;;;5113116;28;20411;-73
2021/12/06 05:54:37;;;;;;;32.80;18.83;;;;;;;;;;5112013;27;20026;-72
2021/12/06 05:57:03;;;;;;;29.30;17.70;;;;;;;;;;5109026;27;20506;-73
2021/12/06 05:59:28;;;;;;;30.27;18.13;;;;;;;;;;5123221;27;20030;-72
2021/12/06 06:01:54;;;;;;;30.83;18.80;;;;;;;;;;5114274;27;20047;-73
2021/12/06 06:04:20;;;;;;;31.13;18.43;;;;;;;;;;5111289;27;20103;-73
2021/12/06 06:06:45;;;;;;;33.67;18.50;;;;;;;;;;5112444;27;20027;-73
2021/12/06 06:09:11;;;;;;;29.23;18.60;;;;;;;;;;5111904;27;20035;-72
2021/12/06 06:11:36;;;;;;;29.67;18.13;;;;;;;;;;5108664;27;20031;-73
2021/12/06 06:14:02;;;;;;;28.10;18.07;;;;;;;;;;5130034;27;20023;-73
2021/12/06 06:16:31;;;;;;;32.27;18.37;;;;;;;;;;5128803;27;20026;-73
2021/12/06 06:18:57;;;;;;;33.63;20.17;;;;;;;;;;5111850;27;20058;-73
2021/12/06 06:21:22;;;;;;;35.63;20.67;;;;;;;;;;5121849;27;20047;-73
2021/12/06 06:23:47;;;;;;;36.70;21.07;;;;;;;;;;5085851;27;20133;-73
2021/12/06 06:26:12;;;;;;;33.80;20.83;;;;;;;;;;5088738;27;20061;-73
2021/12/06 06:28:38;;;;;;;37.50;22.83;;;;;;;;;;5103092;27;20023;-73
2021/12/06 06:31:03;;;;;;;40.03;22.70;;;;;;;;;;5110837;28;20023;-70
2021/12/06 06:33:28;;;;;;;37.50;21.47;;;;;;;;;;5121889;28;20011;-75
2021/12/06 06:35:54;;;;;;;36.33;22.67;;;;;;;;;;5122150;28;20403;-74
2021/12/06 06:38:20;;;;;;;35.77;21.23;;;;;;;;;;5110100;28;20027;-75
2021/12/06 06:40:45;;;;;;;34.53;21.77;;;;;;;;;;5128343;28;20371;-75
2021/12/06 06:43:10;;;;;;;33.87;20.57;;;;;;;;;;5112212;28;20027;-74
2021/12/06 06:45:35;;;;;;;27.63;17.17;;;;;;;;;;5106121;28;20394;-75
2021/12/06 06:48:01;;;;;;;27.50;18.00;;;;;;;;;;5112261;28;20106;-75
2021/12/06 06:50:26;;;;;;;25.60;17.80;;;;;;;;;;5112185;28;20023;-75
2021/12/06 06:52:52;;;;;;;24.93;16.53;;;;;;;;;;5098849;28;20118;-75
2021/12/06 06:55:17;;;;;;;23.80;15.77;;;;;;;;;;5100834;27;20475;-73
2021/12/06 06:57:43;;;;;;;23.07;14.80;;;;;;;;;;5113500;28;20016;-74
2021/12/06 07:00:10;;;;;;;21.40;14.63;;;;;;;;;;5122541;27;20026;-74
2021/12/06 07:02:36;;;;;;;20.40;14.03;;;;;;;;;;5114441;27;20038;-74
2021/12/06 07:05:01;;;;;;;21.80;14.90;;;;;;;;;;5128138;27;20026;-75
2021/12/06 07:07:26;;;;;;;23.33;15.00;;;;;;;;;;5122735;28;20027;-74
2021/12/06 07:09:51;;;;;;;23.63;15.27;;;;;;;;;;5128134;27;20027;-74
2021/12/06 07:12:18;;;;;;;21.87;15.30;;;;;;;;;;5135208;27;20023;-75
2021/12/06 07:14:44;;;;;;;24.47;15.00;;;;;;;;;;5133757;27;20030;-76
2021/12/06 07:17:10;;;;;;;23.93;15.80;;;;;;;;;;5118350;27;20019;-74
2021/12/06 07:19:35;;;;;;;24.70;15.53;;;;;;;;;;5113836;28;20019;-74
2021/12/06 07:22:00;;;;;;;21.27;15.20;;;;;;;;;;5124317;27;20015;-74
2021/12/06 07:24:26;;;;;;;21.23;14.77;;;;;;;;;;5132307;27;20035;-73
2021/12/06 07:26:51;;;;;;;22.77;15.07;;;;;;;;;;5132731;27;20031;-72
2021/12/06 07:29:17;;;;;;;22.00;14.63;;;;;;;;;;5089986;27;20357;-73
2021/12/06 07:31:42;;;;;;;21.10;15.43;;;;;;;;;;5133082;27;20457;-73
2021/12/06 07:34:07;;;;;;;21.77;15.07;;;;;;;;;;5099596;27;20503;-73
2021/12/06 07:36:32;;;;;;;21.40;15.30;;;;;;;;;;5098205;27;20028;-73
2021/12/06 07:38:58;;;;;;;20.20;13.87;;;;;;;;;;5134609;27;20058;-73
2021/12/06 07:41:23;;;;;;;20.37;13.80;;;;;;;;;;5098291;27;20483;-73
2021/12/06 07:43:49;;;;;;;21.63;13.87;;;;;;;;;;5134640;27;20050;-73
2021/12/06 07:46:15;;;;;;;19.00;13.60;;;;;;;;;;5133279;27;20011;-73
2021/12/06 07:48:40;;;;;;;20.37;13.37;;;;;;;;;;5114405;27;20040;-73
2021/12/06 07:51:07;;;;;;;18.83;13.67;;;;;;;;;;5137964;27;20026;-73
2021/12/06 07:53:33;;;;;;;20.27;15.47;;;;;;;;;;5132880;27;20027;-74
2021/12/06 07:55:58;;;;;;;19.63;14.07;;;;;;;;;;5134078;27;20027;-73
2021/12/06 07:58:24;;;;;;;20.57;14.20;;;;;;;;;;5129575;27;20538;-72
2021/12/06 08:00:50;;;;;;;17.47;12.87;;;;;;;;;;5132975;27;20011;-73
2021/12/06 08:03:18;;;;;;;17.57;12.87;;;;;;;;;;5098471;27;20023;-73
2021/12/06 08:05:44;;;;;;;19.17;13.17;;;;;;;;;;5133602;27;20019;-73
2021/12/06 08:08:10;;;;;;;16.90;11.97;;;;;;;;;;5113754;27;20031;-72
2021/12/06 08:10:37;;;;;;;14.90;11.03;;;;;;;;;;5133204;27;20027;-73
2021/12/06 08:13:02;;;;;;;13.70;10.00;;;;;;;;;;5114862;27;20034;-73
2021/12/06 08:15:27;;;;;;;14.20;10.47;;;;;;;;;;5097389;27;20028;-73
2021/12/06 08:17:53;;;;;;;14.07;10.30;;;;;;;;;;5115536;27;20023;-74
2021/12/06 08:20:18;;;;;;;15.57;11.50;;;;;;;;;;5133656;27;20027;-73
2021/12/06 08:22:43;;;;;;;13.87;10.50;;;;;;;;;;5114806;27;20538;-73
2021/12/06 08:25:10;;;;;;;15.37;10.87;;;;;;;;;;5133497;27;20019;-72
2021/12/06 08:27:35;;;;;;;14.33;9.63;;;;;;;;;;5133334;27;20486;-73
2021/12/06 08:30:01;;;;;;;13.97;9.90;;;;;;;;;;5127718;27;20061;-73
2021/12/06 08:32:26;;;;;;;13.57;9.90;;;;;;;;;;5114339;27;20023;-73
2021/12/06 08:34:51;;;;;;;11.40;9.33;;;;;;;;;;5131947;27;20114;-73
2021/12/06 08:37:16;;;;;;;14.20;10.73;;;;;;;;;;5111144;27;20420;-73
2021/12/06 08:39:41;;;;;;;13.63;10.17;;;;;;;;;;5113802;27;20588;-73
2021/12/06 08:42:07;;;;;;;12.70;9.43;;;;;;;;;;5114737;27;20059;-73
2021/12/06 08:44:33;;;;;;;13.23;8.67;;;;;;;;;;5114096;27;20054;-73
2021/12/06 08:46:58;;;;;;;11.87;9.87;;;;;;;;;;5130756;27;20038;-73
2021/12/06 08:49:23;;;;;;;12.80;9.30;;;;;;;;;;5114832;27;20123;-73
2021/12/06 08:51:49;;;;;;;11.97;9.07;;;;;;;;;;5132800;27;20459;-73
2021/12/06 08:54:18;;;;;;;12.17;8.90;;;;;;;;;;5133096;27;20047;-73
2021/12/06 08:56:44;;;;;;;12.90;10.00;;;;;;;;;;5112536;27;20027;-73
2021/12/06 08:59:09;;;;;;;15.37;10.50;;;;;;;;;;5108328;27;20038;-74
2021/12/06 09:01:35;;;;;;;11.03;8.90;;;;;;;;;;5127558;27;20059;-73
2021/12/06 09:04:00;;;;;;;13.13;9.43;;;;;;;;;;5113371;27;20476;-72
2021/12/06 09:06:26;;;;;;;13.33;9.77;;;;;;;;;;5132294;27;20046;-73
2021/12/06 09:08:51;;;;;;;10.17;8.10;;;;;;;;;;5113292;27;20023;-73
2021/12/06 09:11:16;;;;;;;10.33;8.63;;;;;;;;;;5097199;27;20035;-73
2021/12/06 09:13:42;;;;;;;11.70;9.57;;;;;;;;;;5131608;27;20020;-72
2021/12/06 09:16:08;;;;;;;12.10;8.83;;;;;;;;;;5114423;27;20106;-74
2021/12/06 09:18:34;;;;;;;14.73;10.10;;;;;;;;;;5130548;27;20023;-69
2021/12/06 09:21:01;;;;;;;12.03;9.00;;;;;;;;;;5114574;27;20480;-70
2021/12/06 09:23:26;;;;;;;11.63;8.97;;;;;;;;;;5113509;27;20482;-73
2021/12/06 09:25:52;;;;;;;12.40;8.93;;;;;;;;;;5114003;27;20035;-71
2021/12/06 09:28:17;;;;;;;12.70;9.27;;;;;;;;;;5127066;27;20470;-69
2021/12/06 09:30:43;;;;;;;10.30;9.10;;;;;;;;;;5133858;27;20034;-72
2021/12/06 09:33:09;;;;;;;13.27;10.00;;;;;;;;;;5115204;27;20467;-73
2021/12/06 09:35:37;;;;;;;12.57;10.10;;;;;;;;;;5094806;27;20062;-73
2021/12/06 09:38:03;;;;;;;15.70;11.53;;;;;;;;;;5131977;27;20051;-73
2021/12/06 09:40:29;;;;;;;18.13;12.67;;;;;;;;;;5113329;27;20066;-73
2021/12/06 09:42:55;;;;;;;15.17;11.17;;;;;;;;;;5132333;27;20034;-73
2021/12/06 09:45:22;;;;;;;14.33;11.00;;;;;;;;;;5113328;27;20064;-72
2021/12/06 09:47:52;;;;;;;14.53;10.63;;;;;;;;;;5130095;27;20067;-74
2021/12/06 09:50:28;;;;;;;14.90;11.70;;;;;;;;;;5112611;27;20076;-73
2021/12/06 09:52:56;;;;;;;16.03;12.50;;;;;;;;;;5131518;27;20023;-73
2021/12/06 09:55:21;;;;;;;16.07;11.50;;;;;;;;;;5112747;27;20034;-73
2021/12/06 09:57:47;;;;;;;16.23;11.83;;;;;;;;;;5132350;27;20019;-73
2021/12/06 10:00:14;;;;;;;16.17;11.73;;;;;;;;;;5127615;27;20106;-73
2021/12/06 10:02:39;;;;;;;16.37;12.23;;;;;;;;;;5130885;27;20075;-73
2021/12/06 10:05:05;;;;;;;18.60;13.27;;;;;;;;;;5114379;27;20091;-73
2021/12/06 10:07:31;;;;;;;17.97;12.47;;;;;;;;;;5132884;27;20027;-73
2021/12/06 10:09:57;;;;;;;17.03;12.73;;;;;;;;;;5113575;27;20023;-73
2021/12/06 10:12:24;;;;;;;18.77;13.37;;;;;;;;;;5095310;27;20051;-73
2021/12/06 10:14:49;;;;;;;18.40;13.40;;;;;;;;;;5131557;27;20019;-74
2021/12/06 10:17:16;;;;;;;17.07;12.40;;;;;;;;;;5112838;27;20015;-75
2021/12/06 10:19:42;;;;;;;18.10;12.40;;;;;;;;;;5109429;27;20499;-75
2021/12/06 10:22:07;;;;;;;18.60;13.70;;;;;;;;;;5112549;27;20231;-75
2021/12/06 10:24:33;;;;;;;18.47;13.00;;;;;;;;;;5113523;28;20118;-75
2021/12/06 10:27:16;;;;;;;16.23;13.13;;;;;;;;;;5112283;27;20031;-75
2021/12/06 10:29:44;;;;;;;17.40;12.30;;;;;;;;;;5108495;27;20558;-75
2021/12/06 10:32:19;;;;;;;19.10;13.40;;;;;;;;;;5127570;27;20019;-74
2021/12/06 10:34:45;;;;;;;;;;;;;;;;;;5113474;28;20034;-74
2021/12/06 10:37:25;;;;;;;17.97;12.93;;;;;;;;;;5112662;28;19907;-74
2021/12/06 10:39:52;;;;;;;18.03;13.23;;;;;;;;;;5131709;28;20020;-74
2021/12/06 10:42:39;;;;;;;20.63;14.10;;;;;;;;;;5113645;28;20165;-74
2021/12/06 10:45:09;;;;;;;19.87;14.00;;;;;;;;;;5132884;27;20054;-74
2021/12/06 10:47:35;;;;;;;19.07;13.53;;;;;;;;;;5134626;27;20046;-74
2021/12/06 10:50:12;;;;;;;19.03;12.97;;;;;;;;;;5118109;27;20092;-75
2021/12/06 10:52:46;;;;;;;18.67;12.87;;;;;;;;;;5136200;27;20094;-74
2021/12/06 10:55:12;;;;;;;19.63;13.83;;;;;;;;;;5135911;27;20026;-74
2021/12/06 10:57:48;;;;;;;16.87;12.40;;;;;;;;;;5100152;27;20265;-74
2021/12/06 11:00:33;;;;;;;15.57;11.77;;;;;;;;;;5121553;27;20026;-75
2021/12/06 11:03:00;;;;;;;18.33;12.45;;;;;;;;;;5104256;27;20051;-73
2021/12/06 11:05:26;;;;;;;18.90;13.00;;;;;;;;;;5139819;27;20098;-74
2021/12/06 11:08:11;;;;;;;19.00;13.17;;;;;;;;;;5145237;27;20019;-74
2021/12/06 11:10:41;;;;;;;18.93;13.20;;;;;;;;;;5133823;27;20122;-74
2021/12/06 11:13:17;;;;;;;18.47;13.10;;;;;;;;;;5136047;27;20520;-74
2021/12/06 11:15:58;;;;;;;22.07;14.77;;;;;;;;;;5139705;27;20024;-74
2021/12/06 11:18:29;;;;;;;20.60;14.47;;;;;;;;;;5122938;27;20117;-74
2021/12/06 11:20:54;;;;;;;25.20;15.57;;;;;;;;;;5135810;27;20026;-74
2021/12/06 11:23:20;;;;;;;22.93;14.60;;;;;;;;;;5097072;28;20032;-74
2021/12/06 11:25:53;;;;;;;20.30;13.40;;;;;;;;;;5115590;27;20031;-75
2021/12/06 11:28:23;;;;;;;21.50;14.53;;;;;;;;;;5113243;27;20058;-73
2021/12/06 11:31:02;;;;;;;21.70;14.17;;;;;;;;;;5134759;27;20023;-75
2021/12/06 11:33:29;;;;;;;21.57;13.93;;;;;;;;;;5133979;27;20084;-74
2021/12/06 11:35:54;;;;;;;21.23;14.00;;;;;;;;;;5135165;27;20475;-74
2021/12/06 11:38:20;;;;;;;19.93;13.23;;;;;;;;;;5115701;27;20023;-74
2021/12/06 11:40:45;;;;;;;19.87;13.17;;;;;;;;;;5135087;27;20015;-76
2021/12/06 11:43:11;;;;;;;20.13;14.07;;;;;;;;;;5099183;27;20452;-74
2021/12/06 11:45:39;;;;;;;19.47;12.50;;;;;;;;;;5112638;27;20026;-74
2021/12/06 11:48:06;;;;;;;20.90;13.83;;;;;;;;;;5134611;27;20088;-74
2021/12/06 11:50:31;;;;;;;20.47;13.73;;;;;;;;;;5121023;27;20034;-74
2021/12/06 11:53:02;;;;;;;20.73;13.93;;;;;;;;;;5116490;27;20023;-75
2021/12/06 11:55:27;;;;;;;17.07;11.50;;;;;;;;;;5116225;27;20023;-74
2021/12/06 11:57:54;;;;;;;15.73;11.40;;;;;;;;;;5098521;27;20364;-74
2021/12/06 12:00:21;;;;;;;15.17;10.63;;;;;;;;;;5111190;27;20546;-74
2021/12/06 12:02:48;;;;;;;16.57;11.23;;;;;;;;;;5141099;27;20053;-75
2021/12/06 12:05:27;;;;;;;15.37;11.07;;;;;;;;;;5116504;27;20060;-75
2021/12/06 12:07:54;;;;;;;14.13;10.57;;;;;;;;;;5117997;27;20026;-74
2021/12/06 12:10:37;;;;;;;16.47;11.93;;;;;;;;;;5133935;27;20031;-74
2021/12/06 12:13:04;;;;;;;13.03;10.30;;;;;;;;;;5116390;27;20022;-75
2021/12/06 12:15:29;;;;;;;16.67;11.43;;;;;;;;;;5134865;27;20102;-76
2021/12/06 12:17:54;;;;;;;13.30;9.90;;;;;;;;;;5135237;27;20109;-76
2021/12/06 12:20:24;;;;;;;14.93;10.43;;;;;;;;;;5134496;27;20019;-76
2021/12/06 12:22:51;;;;;;;14.87;11.07;;;;;;;;;;5132673;27;20486;-77
2021/12/06 12:25:27;;;;;;;15.47;11.27;;;;;;;;;;5133568;27;20034;-75
2021/12/06 12:30:33;;;;;;;15.53;10.80;;;;;;;;;;5127773;27;20037;-76
2021/12/06 12:33:00;;;;;;;14.40;10.57;;;;;;;;;;5115570;27;20063;-76
2021/12/06 12:35:28;;;;;;;15.10;11.00;;;;;;;;;;5115885;27;20027;-75
2021/12/06 12:37:54;;;;;;;13.47;9.07;;;;;;;;;;5115278;27;20073;-75
2021/12/06 12:40:21;;;;;;;13.10;9.43;;;;;;;;;;5097684;27;20035;-75
2021/12/06 12:42:58;;;;;;;13.17;10.10;;;;;;;;;;5114566;27;20026;-75
2021/12/06 12:45:24;;;;;;;14.90;10.03;;;;;;;;;;5115759;27;20023;-75
2021/12/06 12:47:54;;;;;;;11.57;8.60;;;;;;;;;;5133454;27;20050;-74
2021/12/06 12:50:19;;;;;;;12.67;8.90;;;;;;;;;;5115485;27;20034;-74
2021/12/06 12:52:54;;;;;;;11.17;8.30;;;;;;;;;;5109611;28;20024;-75
2021/12/06 12:55:28;;;;;;;9.80;7.10;;;;;;;;;;5115229;27;20019;-74
2021/12/06 12:58:13;;;;;;;11.90;8.50;;;;;;;;;;5115082;27;20099;-75
2021/12/06 13:00:51;;;;;;;11.50;8.27;;;;;;;;;;5127594;27;20023;-74
2021/12/06 13:03:36;;;;;;;11.43;8.07;;;;;;;;;;5114878;27;20035;-75
2021/12/06 13:06:20;;;;;;;12.52;8.30;;;;;;;;;;5113779;28;20016;-75
2021/12/06 13:08:47;;;;;;;12.73;9.17;;;;;;;;;;5109795;27;20031;-75
2021/12/06 13:11:13;;;;;;;12.50;8.47;;;;;;;;;;5133009;27;20427;-75
2021/12/06 13:13:44;;;;;;;11.47;8.47;;;;;;;;;;5115788;27;20035;-76
2021/12/06 13:19:06;;;;;;;13.13;9.00;;;;;;;;;;5127529;27;20092;-74
2021/12/06 13:21:32;;;;;;;10.33;7.30;;;;;;;;;;5119827;27;20027;-75
2021/12/06 13:24:09;;;;;;;9.43;7.33;;;;;;;;;;5120250;27;20031;-75
2021/12/06 13:26:35;;;;;;;9.83;7.13;;;;;;;;;;5129144;27;20026;-75
2021/12/06 13:29:03;;;;;;;10.57;7.30;;;;;;;;;;5113749;27;20034;-75
2021/12/06 13:31:29;;;;;;;10.47;7.80;;;;;;;;;;5123462;27;20506;-74
2021/12/06 13:33:55;;;;;;;9.73;7.23;;;;;;;;;;5121518;27;20031;-75
2021/12/06 13:36:39;;;;;;;10.50;7.87;;;;;;;;;;5114855;27;20015;-75
2021/12/06 13:39:24;;;;;;;9.73;7.20;;;;;;;;;;5139675;27;20055;-75
2021/12/06 13:41:50;;;;;;;10.70;7.35;;;;;;;;;;5132604;27;20023;-76
2021/12/06 13:44:21;;;;;;;10.00;7.23;;;;;;;;;;5115004;27;20068;-76
2021/12/06 13:46:50;;;;;;;9.80;7.20;;;;;;;;;;5098084;27;20031;-76
2021/12/06 13:49:16;;;;;;;13.00;8.27;;;;;;;;;;5114092;27;20022;-76
2021/12/06 13:51:56;;;;;;;11.47;7.73;;;;;;;;;;5114528;27;20015;-76
2021/12/06 13:54:34;;;;;;;11.63;8.53;;;;;;;;;;5132607;27;20023;-76
2021/12/06 13:57:02;;;;;;;11.90;8.70;;;;;;;;;;5131813;27;20054;-75
2021/12/06 13:59:40;;;;;;;14.60;10.13;;;;;;;;;;5116156;27;20421;-76
2021/12/06 14:02:07;;;;;;;15.97;10.80;;;;;;;;;;5139021;27;20047;-76
2021/12/06 14:04:37;;;;;;;13.10;9.70;;;;;;;;;;5114506;27;20023;-75
2021/12/06 14:07:03;;;;;;;12.37;9.67;;;;;;;;;;5132307;27;20357;-76
2021/12/06 14:09:30;;;;;;;14.03;10.43;;;;;;;;;;5119539;27;20445;-76
2021/12/06 14:11:57;;;;;;;12.17;9.40;;;;;;;;;;5131864;27;20023;-76
2021/12/06 14:14:24;;;;;;;14.67;10.23;;;;;;;;;;5113774;27;20067;-76
2021/12/06 14:16:49;;;;;;;14.10;9.87;;;;;;;;;;5122580;27;20038;-76
2021/12/06 14:19:15;;;;;;;15.00;11.13;;;;;;;;;;5112473;27;20374;-76
2021/12/06 14:21:43;;;;;;;17.27;12.77;;;;;;;;;;5130800;27;20474;-72
2021/12/06 14:24:08;;;;;;;18.47;12.57;;;;;;;;;;5113116;27;20027;-76
2021/12/06 14:26:41;;;;;;;20.23;13.77;;;;;;;;;;5112830;28;20015;-76
2021/12/06 14:29:10;;;;;;;17.43;13.33;;;;;;;;;;5112940;27;20038;-76
2021/12/06 14:31:38;;;;;;;18.77;13.63;;;;;;;;;;5150702;27;20062;-76
2021/12/06 14:34:04;;;;;;;21.23;15.30;;;;;;;;;;5120804;27;20053;-76
2021/12/06 14:36:29;;;;;;;20.63;14.90;;;;;;;;;;5122402;28;20015;-76
2021/12/06 14:38:54;;;;;;;21.77;15.20;;;;;;;;;;5113797;28;20471;-76
2021/12/06 14:41:19;;;;;;;21.50;16.00;;;;;;;;;;5112915;28;20023;-76